Time;durP1;ratioP1;P1;durP2;ratioP2;P2;SDS_P1;SDS_P2;PMS_P1;PMS_P2;Temp;Humidity;BMP_temperature;BMP_pressure;BME280_temperature;BME280_humidity;BME280_pressure;Samples;Min_cycle;Max_cycle;Signal;HPM_P1;HPM_P2
2022/04/14 00:01:22;;;;;;;15.57;9.13;;;;;;;;;;5092521;28;20089;-60
2022/04/14 00:03:48;;;;;;;15.68;9.02;;;;;;;;;;5092577;28;20052;-60
2022/04/14 00:06:14;;;;;;;15.38;8.88;;;;;;;;;;5094173;28;20115;-60
2022/04/14 00:08:40;;;;;;;18.98;10.30;;;;;;;;;;5093467;28;20040;-60
2022/04/14 00:11:06;;;;;;;16.15;9.90;;;;;;;;;;5093103;28;20047;-60
2022/04/14 00:13:32;;;;;;;13.98;8.65;;;;;;;;;;5092898;28;20040;-60
2022/04/14 00:15:58;;;;;;;14.38;9.23;;;;;;;;;;5091880;28;20044;-60
2022/04/14 00:18:24;;;;;;;14.35;9.55;;;;;;;;;;5093942;28;20044;-60
2022/04/14 00:20:50;;;;;;;14.50;9.20;;;;;;;;;;5093609;28;20119;-60
2022/04/14 00:23:16;;;;;;;21.48;10.52;;;;;;;;;;5092267;28;20189;-60
2022/04/14 00:25:42;;;;;;;14.57;9.35;;;;;;;;;;5093692;28;20496;-60
2022/04/14 00:28:08;;;;;;;16.35;10.30;;;;;;;;;;5075162;28;20120;-60
2022/04/14 00:30:34;;;;;;;16.67;9.95;;;;;;;;;;5091734;28;20093;-60
2022/04/14 00:33:01;;;;;;;16.73;9.40;;;;;;;;;;5092512;28;20056;-60
2022/04/14 00:35:27;;;;;;;22.45;11.68;;;;;;;;;;5091897;28;20044;-60
2022/04/14 00:37:53;;;;;;;16.40;10.10;;;;;;;;;;5091972;28;20043;-60
2022/04/14 00:40:19;;;;;;;16.95;11.55;;;;;;;;;;5075566;28;20038;-60
2022/04/14 00:42:45;;;;;;;13.50;10.00;;;;;;;;;;5091064;28;20040;-60
2022/04/14 00:45:12;;;;;;;16.55;9.63;;;;;;;;;;5092252;28;20059;-60
2022/04/14 00:47:38;;;;;;;17.95;10.50;;;;;;;;;;5092099;28;20043;-60
2022/04/14 00:50:05;;;;;;;18.40;11.30;;;10.10;99.90;;;;;;5092579;28;20093;-60
2022/04/14 00:52:31;;;;;;;15.13;10.55;;;;;;;;;;5109448;28;20069;-60
2022/04/14 00:54:57;;;;;;;16.83;11.98;;;;;;;;;;5092109;28;20484;-60
2022/04/14 00:57:23;;;;;;;17.48;10.70;;;;;;;;;;5092261;28;20043;-60
2022/04/14 00:59:49;;;;;;;19.92;11.70;;;;;;;;;;5093212;28;20540;-60
2022/04/14 01:02:16;;;;;;;16.92;11.32;;;;;;;;;;5107969;28;20123;-60
2022/04/14 01:04:42;;;;;;;17.95;11.88;;;;;;;;;;5090316;28;20100;-60
2022/04/14 01:07:08;;;;;;;20.88;11.23;;;9.90;99.90;;;;;;5090926;28;20122;-60
2022/04/14 01:09:36;;;;;;;20.20;13.05;;;9.80;99.90;;;;;;5074535;28;20040;-60
2022/04/14 01:12:03;;;;;;;21.45;12.65;;;9.80;99.90;;;;;;5092135;28;20047;-60
2022/04/14 01:14:37;;;;;;;17.52;11.27;;;9.80;99.90;;;;;;5108234;28;20484;-60
2022/04/14 01:17:08;;;;;;;23.80;11.88;;;9.70;99.90;;;;;;5091733;28;20047;-60
2022/04/14 01:19:34;;;;;;;18.75;12.38;;;9.70;99.90;;;;;;5090784;28;20044;-60
2022/04/14 01:22:08;;;;;;;17.25;12.32;;;9.90;99.90;;;;;;5092654;28;20489;-60
2022/04/14 01:24:34;;;;;;;15.77;11.52;;;;;;;;;;5091512;28;20054;-60
2022/04/14 01:27:00;;;;;;;18.55;13.27;;;9.40;99.90;;;;;;5091774;28;20044;-60
2022/04/14 01:29:27;;;;;;;18.98;13.52;;;9.60;99.90;;;;;;5092843;28;20032;-60
2022/04/14 01:31:54;;;;;;;21.35;13.27;;;9.70;99.90;;;;;;5091200;28;20492;-60
2022/04/14 01:34:21;;;;;;;15.60;9.57;;;;;;;;;;5108401;28;20086;-60
2022/04/14 01:36:47;;;;;;;15.98;11.02;;;;;;;;;;5091207;28;20070;-60
2022/04/14 01:39:14;;;;;;;20.58;12.38;;;;;;;;;;5090443;28;20079;-60
2022/04/14 01:41:40;;;;;;;17.05;12.13;;;;;;;;;;5090905;28;20075;-60
2022/04/14 01:44:06;;;;;;;16.92;11.43;;;;;;;;;;5091083;28;20119;-60
2022/04/14 01:46:33;;;;;;;17.85;11.95;;;;;;;;;;5091705;28;20052;-60
2022/04/14 01:48:59;;;;;;;21.23;13.25;;;;;;;;;;5091156;28;20044;-60
2022/04/14 01:51:28;;;;;;;18.58;11.82;;;9.10;99.90;;;;;;5091081;28;20036;-60
2022/04/14 01:53:54;;;;;;;17.00;12.50;;;;;;;;;;5091203;28;20076;-60
2022/04/14 01:56:21;;;;;;;19.25;13.60;;;;;;;;;;5092323;28;20043;-60
2022/04/14 01:58:48;;;;;;;21.52;14.55;;;9.20;99.90;;;;;;5092388;28;20051;-60
2022/04/14 02:01:14;;;;;;;24.73;15.50;;;;;;;;;;5090179;28;20397;-60
2022/04/14 02:03:40;;;;;;;20.00;12.95;;;;;;;;;;5090738;28;20074;-60
2022/04/14 02:06:06;;;;;;;21.42;14.77;;;;;;;;;;5090744;28;20067;-60
2022/04/14 02:08:32;;;;;;;22.65;15.00;;;;;;;;;;5090157;28;20127;-60
2022/04/14 02:10:58;;;;;;;19.35;13.63;;;;;;;;;;5090143;28;20040;-60
2022/04/14 02:13:24;;;;;;;21.27;14.73;;;;;;;;;;5091103;28;20040;-60
2022/04/14 02:15:50;;;;;;;25.05;16.70;;;;;;;;;;5089865;28;20081;-60
2022/04/14 02:18:16;;;;;;;25.50;17.15;;;;;;;;;;5090971;28;20051;-60
2022/04/14 02:20:42;;;;;;;25.02;16.45;;;;;;;;;;5090571;28;20072;-60
2022/04/14 02:23:08;;;;;;;28.27;16.85;;;;;;;;;;5091354;28;20098;-60
2022/04/14 02:25:34;;;;;;;25.00;18.40;;;;;;;;;;5090211;28;20056;-60
2022/04/14 02:28:00;;;;;;;27.30;17.95;;;;;;;;;;5091384;28;20069;-60
2022/04/14 02:30:26;;;;;;;28.45;19.52;;;;;;;;;;5090722;28;20509;-60
2022/04/14 02:32:52;;;;;;;27.10;19.73;;;;;;;;;;5090689;28;20416;-60
2022/04/14 02:35:18;;;;;;;28.13;19.02;;;;;;;;;;5090954;28;20036;-60
2022/04/14 02:37:44;;;;;;;31.67;19.63;;;;;;;;;;5090188;28;20047;-60
2022/04/14 02:40:10;;;;;;;29.77;21.48;;;8.40;99.90;;;;;;5091045;28;20057;-60
2022/04/14 02:42:36;;;;;;;36.13;21.65;;;;;;;;;;5090097;28;20050;-60
2022/04/14 02:45:02;;;;;;;31.00;21.00;;;;;;;;;;5090372;28;20047;-60
2022/04/14 02:47:28;;;;;;;33.05;23.20;;;8.80;99.90;;;;;;5090738;28;20172;-60
2022/04/14 02:49:53;;;;;;;29.15;20.55;;;9.00;99.90;;;;;;5106400;28;20132;-60
2022/04/14 02:52:19;;;;;;;31.80;21.42;;;10.70;99.90;;;;;;5107745;28;20047;-60
2022/04/14 02:54:44;;;;;;;37.83;28.00;;;8.70;99.90;;;;;;5091367;28;20036;-60
2022/04/14 02:57:10;;;;;;;36.00;24.60;;;8.80;99.90;;;;;;5089549;28;20040;-60
2022/04/14 02:59:38;;;;;;;35.78;22.63;;;8.90;99.90;;;;;;5073447;28;20047;-60
2022/04/14 03:02:04;;;;;;;33.53;23.15;;;9.10;99.90;;;;;;5089837;28;20507;-60
2022/04/14 03:04:30;;;;;;;32.60;22.52;;;;;;;;;;5090523;28;20501;-60
2022/04/14 03:06:57;;;;;;;35.90;24.52;;;9.00;99.90;;;;;;5090289;28;20040;-60
2022/04/14 03:09:24;;;;;;;33.97;22.80;;;;;;;;;;5091532;28;20051;-60
2022/04/14 03:11:49;;;;;;;39.88;26.38;;;8.90;99.90;;;;;;5090302;28;20532;-60
2022/04/14 03:14:15;;;;;;;40.88;26.38;;;8.80;99.90;;;;;;5090018;28;20043;-60
2022/04/14 03:16:41;;;;;;;31.83;21.73;;;;;;;;;;5090121;28;20036;-60
2022/04/14 03:19:07;;;;;;;35.55;24.63;;;8.30;99.90;;;;;;5093722;28;20040;-60
2022/04/14 03:21:32;;;;;;;41.60;24.67;;;8.70;99.90;;;;;;5095059;28;20043;-60
2022/04/14 03:23:58;;;;;;;34.90;23.27;;;8.40;99.90;;;;;;5093171;28;20039;-60
2022/04/14 03:26:24;;;;;;;32.25;20.55;;;8.80;99.90;;;;;;5093218;28;20038;-60
2022/04/14 03:28:49;;;;;;;31.75;21.67;;;8.70;99.90;;;;;;5094881;28;20389;-60
2022/04/14 03:31:15;;;;;;;37.30;25.27;;;;;;;;;;5093081;28;20115;-60
2022/04/14 03:33:41;;;;;;;38.20;24.98;;;8.90;99.90;;;;;;5093060;28;20055;-60
2022/04/14 03:36:06;;;;;;;32.90;24.27;;;8.80;99.90;;;;;;5094494;28;20040;-60
2022/04/14 03:38:32;;;;;;;36.25;22.17;;;8.80;99.90;;;;;;5093783;28;20036;-60
2022/04/14 03:41:04;;;;;;;30.00;23.17;;;8.20;99.90;;;;;;5094150;28;20040;-60
2022/04/14 03:43:30;;;;;;;34.25;22.52;;;;;;;;;;5093118;28;20047;-60
2022/04/14 03:45:55;;;;;;;34.35;21.58;;;8.30;99.90;;;;;;5092933;28;20393;-60
2022/04/14 03:48:21;;;;;;;31.05;23.48;;;7.90;99.90;;;;;;5093157;28;20032;-60
2022/04/14 03:50:46;;;;;;;38.72;27.83;;;8.70;99.90;;;;;;5094234;28;20044;-60
2022/04/14 03:53:12;;;;;;;29.27;21.13;;;8.50;99.90;;;;;;5092594;28;20040;-60
2022/04/14 03:55:38;;;;;;;29.27;20.55;;;8.60;99.90;;;;;;5093081;28;20047;-60
2022/04/14 03:58:03;;;;;;;31.52;21.02;;;8.10;99.90;;;;;;5093186;28;20036;-60
2022/04/14 04:00:29;;;;;;;32.22;22.63;;;;;;;;;;5092563;28;20039;-60
2022/04/14 04:02:55;;;;;;;41.00;27.20;;;8.70;99.90;;;;;;5093975;28;20059;-60
2022/04/14 04:05:21;;;;;;;34.95;22.90;;;;;;;;;;5092745;28;20044;-60
2022/04/14 04:07:47;;;;;;;38.58;23.50;;;;;;;;;;5093114;28;20044;-60
2022/04/14 04:10:13;;;;;;;42.95;28.48;;;8.60;99.90;;;;;;5093119;28;20047;-60
2022/04/14 04:12:38;;;;;;;30.17;24.23;;;8.60;99.90;;;;;;5109593;28;20050;-60
2022/04/14 04:15:04;;;;;;;30.02;21.88;;;8.40;99.90;;;;;;5109003;28;20044;-60
2022/04/14 04:17:30;;;;;;;30.90;20.02;;;7.70;99.90;;;;;;5093928;28;20079;-60
2022/04/14 04:19:56;;;;;;;33.30;23.92;;;8.20;99.90;;;;;;5093878;28;20078;-60
2022/04/14 04:22:21;;;;;;;36.28;24.92;;;8.30;99.90;;;;;;5108787;28;20068;-60
2022/04/14 04:24:47;;;;;;;30.63;22.42;;;8.20;99.90;;;;;;5093952;28;20040;-60
2022/04/14 04:27:12;;;;;;;30.50;21.90;;;8.00;99.90;;;;;;5075711;28;20059;-60
2022/04/14 04:29:38;;;;;;;32.65;21.05;;;7.70;99.90;;;;;;5091032;28;20408;-60
2022/04/14 04:32:04;;;;;;;31.63;21.38;;;8.40;99.90;;;;;;5091498;28;20043;-60
2022/04/14 04:34:30;;;;;;;36.10;26.70;;;;;;;;;;5091747;28;20446;-60
2022/04/14 04:36:55;;;;;;;33.15;20.90;;;8.30;99.90;;;;;;5092922;28;20040;-60
2022/04/14 04:39:21;;;;;;;31.27;22.17;;;8.50;99.90;;;;;;5092705;28;20042;-60
2022/04/14 04:41:47;;;;;;;31.50;21.48;;;7.80;99.90;;;;;;5092809;28;20484;-60
2022/04/14 04:44:12;;;;;;;31.40;22.80;;;8.40;99.90;;;;;;5091919;28;20082;-60
2022/04/14 04:46:38;;;;;;;31.30;21.40;;;;;;;;;;5092364;28;20043;-60
2022/04/14 04:49:04;;;;;;;31.30;23.83;;;;;;;;;;5092711;28;20044;-60
2022/04/14 04:51:30;;;;;;;33.55;23.20;;;;;;;;;;5092229;28;20048;-60
2022/04/14 04:53:56;;;;;;;42.65;28.63;;;;;;;;;;5075058;28;20079;-60
2022/04/14 04:56:22;;;;;;;32.13;23.35;;;8.10;99.90;;;;;;5092670;28;20093;-60
2022/04/14 04:58:48;;;;;;;27.10;21.48;;;;;;;;;;5092623;28;20469;-60
2022/04/14 05:01:15;;;;;;;29.58;21.45;;;7.70;99.90;;;;;;5092793;28;20406;-60
2022/04/14 05:03:41;;;;;;;34.15;24.05;;;;;;;;;;5090950;28;20556;-60
2022/04/14 05:06:07;;;;;;;35.92;25.15;;;;;;;;;;5092816;28;20078;-60
2022/04/14 05:08:33;;;;;;;40.78;26.55;;;;;;;;;;5091949;28;20075;-60
2022/04/14 05:10:59;;;;;;;29.70;22.50;;;7.50;99.90;;;;;;5091059;28;20082;-60
2022/04/14 05:13:24;;;;;;;35.78;26.35;;;8.00;99.90;;;;;;5092942;28;20044;-60
2022/04/14 05:15:50;;;;;;;36.00;25.48;;;7.70;99.90;;;;;;5108262;28;20055;-60
2022/04/14 05:18:15;;;;;;;34.63;25.48;;;7.90;99.90;;;;;;5092196;28;20071;-60
2022/04/14 05:20:42;;;;;;;40.90;26.90;;;8.10;99.90;;;;;;5092775;28;20070;-60
2022/04/14 05:23:11;;;;;;;39.05;27.63;;;8.10;99.90;;;;;;5108576;28;20441;-60
2022/04/14 05:25:39;;;;;;;36.63;27.05;;;7.70;99.90;;;;;;5091841;28;20369;-60
2022/04/14 05:28:05;;;;;;;38.25;28.23;;;;;;;;;;5108020;28;20127;-60
2022/04/14 05:30:31;;;;;;;41.08;29.35;;;7.90;99.90;;;;;;5091470;28;20043;-60
2022/04/14 05:32:56;;;;;;;47.05;30.88;;;7.90;99.90;;;;;;5091715;28;20040;-60
2022/04/14 05:35:22;;;;;;;34.40;25.08;;;;;;;;;;5093448;28;20052;-60
2022/04/14 05:37:48;;;;;;;41.22;29.17;;;7.80;99.90;;;;;;5092453;28;20040;-60
2022/04/14 05:40:14;;;;;;;37.25;25.75;;;8.40;99.90;;;;;;5106649;28;20047;-62
2022/04/14 05:42:46;;;;;;;43.22;29.75;;;8.70;99.90;;;;;;5092630;28;20036;-62
2022/04/14 05:45:15;;;;;;;41.13;28.30;;;8.20;99.90;;;;;;5073594;28;20047;-62
2022/04/14 05:47:41;;;;;;;38.70;28.48;;;;;;;;;;5091851;28;20052;-62
2022/04/14 05:50:07;;;;;;;39.05;27.35;;;8.40;99.90;;;;;;5092503;28;20044;-62
2022/04/14 05:52:33;;;;;;;37.33;27.75;;;8.30;99.90;;;;;;5089762;28;20028;-62
2022/04/14 05:55:01;;;;;;;48.88;31.02;;;9.20;99.90;;;;;;5087932;28;20392;-62
2022/04/14 05:57:28;;;;;;;45.30;30.77;;;8.90;99.90;;;;;;5080824;28;20131;-62
2022/04/14 05:59:54;;;;;;;45.95;29.50;;;;;;;;;;5091530;28;20036;-62
2022/04/14 06:02:20;;;;;;;39.30;28.30;;;8.60;99.90;;;;;;5091373;28;20055;-62
2022/04/14 06:04:46;;;;;;;44.03;30.75;;;9.30;99.90;;;;;;5090676;28;20408;-62
2022/04/14 06:07:11;;;;;;;37.25;27.55;;;9.00;99.90;;;;;;5090669;28;20067;-62
2022/04/14 06:09:37;;;;;;;37.95;27.20;;;9.30;99.90;;;;;;5107435;28;20044;-62
2022/04/14 06:12:03;;;;;;;37.72;27.30;;;9.50;99.90;;;;;;5092399;28;20051;-62
2022/04/14 06:14:30;;;;;;;41.85;28.63;;;9.40;99.90;;;;;;5089786;28;20048;-62
2022/04/14 06:16:56;;;;;;;39.42;25.90;;;9.40;99.90;;;;;;5087839;28;20040;-62
2022/04/14 06:19:22;;;;;;;32.17;24.75;;;;;;;;;;5084683;28;20374;-62
2022/04/14 06:21:48;;;;;;;35.28;25.33;;;9.40;99.90;;;;;;5088090;28;20040;-62
2022/04/14 06:24:14;;;;;;;33.05;25.67;;;;;;;;;;5089000;28;20652;-62
2022/04/14 06:26:40;;;;;;;35.17;26.05;;;;;;;;;;5087797;28;20039;-62
2022/04/14 06:29:05;;;;;;;33.70;25.73;;;10.00;99.90;;;;;;5087619;28;20082;-62
2022/04/14 06:31:31;;;;;;;33.45;25.17;;;9.60;99.90;;;;;;5089394;28;20040;-62
2022/04/14 06:33:57;;;;;;;32.75;24.17;;;10.40;99.90;;;;;;5088076;28;20123;-62
2022/04/14 06:36:22;;;;;;;34.42;22.95;;;10.20;99.90;;;;;;5087026;28;20505;-62
2022/04/14 06:38:48;;;;;;;32.50;23.48;;;;;;;;;;5089250;28;20051;-62
2022/04/14 06:41:14;;;;;;;36.45;24.92;;;10.20;99.90;;;;;;5086636;28;20116;-62
2022/04/14 06:43:39;;;;;;;31.20;22.63;;;10.40;99.90;;;;;;5088300;28;20028;-62
2022/04/14 06:46:05;;;;;;;32.88;22.67;;;10.60;99.90;;;;;;5081287;28;20036;-62
2022/04/14 06:48:31;;;;;;;30.27;21.65;;;10.50;99.90;;;;;;5086943;28;20521;-62
2022/04/14 06:51:00;;;;;;;31.73;21.95;;;10.70;99.90;;;;;;5086690;28;20048;-62
2022/04/14 06:53:27;;;;;;;29.13;21.27;;;10.30;99.90;;;;;;5106731;28;20392;-62
2022/04/14 06:55:53;;;;;;;28.50;20.88;;;10.40;99.90;;;;;;5091760;28;20128;-62
2022/04/14 06:58:20;;;;;;;32.83;20.95;;;10.40;99.90;;;;;;5079354;28;20121;-62
2022/04/14 07:00:46;;;;;;;29.40;21.23;;;;;;;;;;5072575;28;20040;-62
2022/04/14 07:03:12;;;;;;;27.17;20.55;;;;;;;;;;5070568;28;20060;-62
2022/04/14 07:05:38;;;;;;;28.15;19.25;;;;;;;;;;5077343;28;20055;-62
2022/04/14 07:08:04;;;;;;;26.70;19.27;;;;;;;;;;5108209;28;20048;-62
2022/04/14 07:10:30;;;;;;;25.83;20.17;;;;;;;;;;5091739;28;20044;-62
2022/04/14 07:12:58;;;;;;;27.92;20.00;;;;;;;;;;5108360;28;20048;-62
2022/04/14 07:15:24;;;;;;;27.42;19.15;;;;;;;;;;5092532;28;20048;-62
2022/04/14 07:17:50;;;;;;;29.70;18.55;;;;;;;;;;5091018;28;20048;-62
2022/04/14 07:20:16;;;;;;;27.33;19.40;;;;;;;;;;5092811;28;20381;-62
2022/04/14 07:22:46;;;;;;;27.25;18.52;;;;;;;;;;5092236;28;20076;-62
2022/04/14 07:25:13;;;;;;;26.70;18.83;;;;;;;;;;5090055;28;20048;-62
2022/04/14 07:27:39;;;;;;;24.20;17.20;;;;;;;;;;5085720;28;20454;-62
2022/04/14 07:30:05;;;;;;;25.90;16.85;;;;;;;;;;5083832;28;20044;-62
2022/04/14 07:32:38;;;;;;;27.50;17.25;;;;;;;;;;5089203;28;20041;-62
2022/04/14 07:35:05;;;;;;;23.23;17.15;;;;;;;;;;5089962;28;20040;-62
2022/04/14 07:37:32;;;;;;;24.20;16.42;;;;;;;;;;5090046;28;20043;-62
2022/04/14 07:39:58;;;;;;;27.42;17.25;;;;;;;;;;5099225;28;20036;-62
2022/04/14 07:42:31;;;;;;;28.80;15.95;;;;;;;;;;5110093;28;20104;-62
2022/04/14 07:44:57;;;;;;;26.42;16.70;;;;;;;;;;5094522;28;20123;-62
2022/04/14 07:47:23;;;;;;;25.40;16.90;;;;;;;;;;5106886;28;20462;-62
2022/04/14 07:49:48;;;;;;;25.35;17.70;;;12.40;99.90;;;;;;5097933;28;20054;-62
2022/04/14 07:52:14;;;;;;;21.67;15.75;;;12.80;99.90;;;;;;5100633;28;20500;-62
2022/04/14 07:54:39;;;;;;;25.17;14.60;;;12.90;99.90;;;;;;5089596;28;20056;-62
2022/04/14 07:57:05;;;;;;;20.85;15.38;;;12.90;99.90;;;;;;5108214;28;20041;-62
2022/04/14 07:59:31;;;;;;;29.02;17.13;;;13.10;99.90;;;;;;5094058;28;20063;-62
2022/04/14 08:02:00;;;;;;;26.48;17.50;;;13.10;99.90;;;;;;5073164;28;20060;-62
2022/04/14 08:04:26;;;;;;;29.52;17.65;;;13.20;99.90;;;;;;5100995;28;20504;-62
2022/04/14 08:06:53;;;;;;;22.65;16.63;;;;;;;;;;5091089;28;20047;-62
2022/04/14 08:09:18;;;;;;;24.27;17.25;;;13.30;99.90;;;;;;5091973;28;20044;-62
2022/04/14 08:11:44;;;;;;;26.90;17.85;;;13.40;99.90;;;;;;5105136;27;20039;-62
2022/04/14 08:14:09;;;;;;;22.67;16.75;;;13.50;99.90;;;;;;5088695;28;20052;-62
2022/04/14 08:16:35;;;;;;;23.58;18.02;;;13.50;99.90;;;;;;5089337;28;20071;-62
2022/04/14 08:19:01;;;;;;;21.45;15.48;;;13.60;99.90;;;;;;5089450;28;20054;-62
2022/04/14 08:21:26;;;;;;;19.75;13.95;;;13.70;99.90;;;;;;5093499;28;20038;-62
2022/04/14 08:23:53;;;;;;;20.15;13.25;;;13.70;99.90;;;;;;5092675;28;20403;-62
2022/04/14 08:26:19;;;;;;;18.02;11.82;;;11.50;99.90;;;;;;5099734;28;20054;-62
2022/04/14 08:28:46;;;;;;;19.48;12.82;;;14.20;99.90;;;;;;5091835;28;20048;-62
2022/04/14 08:31:12;;;;;;;21.77;15.57;;;;;;;;;;5086911;28;20048;-62
2022/04/14 08:33:38;;;;;;;21.98;13.75;;;14.20;99.90;;;;;;5092878;28;20115;-62
2022/04/14 08:36:05;;;;;;;21.50;14.82;;;14.10;99.90;;;;;;5089725;28;20047;-62
2022/04/14 08:38:31;;;;;;;17.25;12.55;;;14.20;99.90;;;;;;5100382;28;20545;-62
2022/04/14 08:41:03;;;;;;;21.77;14.80;;;14.20;99.90;;;;;;5096353;28;20119;-62
2022/04/14 08:43:34;;;;;;;19.05;12.23;;;14.40;99.90;;;;;;5108341;28;20044;-62
2022/04/14 08:46:01;;;;;;;20.92;13.88;;;14.40;99.90;;;;;;5089510;28;20160;-62
2022/04/14 08:48:27;;;;;;;17.48;13.00;;;15.00;99.90;;;;;;5094659;28;20093;-62
2022/04/14 08:50:54;;;;;;;16.48;11.65;;;15.50;99.90;;;;;;5104078;28;20441;-62
2022/04/14 08:53:23;;;;;;;17.85;12.30;;;;;;;;;;5092560;28;20036;-62
2022/04/14 08:55:50;;;;;;;16.33;11.18;;;;;;;;;;5105674;28;20082;-62
2022/04/14 08:58:17;;;;;;;12.70;8.23;;;;;;;;;;5099288;28;20043;-62
2022/04/14 09:00:43;;;;;;;16.48;11.07;;;;;;;;;;5092181;28;20124;-62
2022/04/14 09:03:09;;;;;;;13.10;8.77;;;;;;;;;;5088858;28;20109;-62
2022/04/14 09:05:35;;;;;;;13.32;8.13;;;;;;;;;;5091190;28;20118;-62
2022/04/14 09:08:01;;;;;;;11.18;7.22;;;;;;;;;;5091142;28;20044;-62
2022/04/14 09:10:27;;;;;;;11.25;7.68;;;;;;;;;;5088623;28;20035;-63
2022/04/14 09:12:54;;;;;;;13.68;7.55;;;;;;;;;;5095592;28;20492;-62
2022/04/14 09:15:20;;;;;;;10.82;6.80;;;;;;;;;;5089256;28;20126;-62
2022/04/14 09:17:46;;;;;;;11.45;6.22;;;;;;;;;;5093626;28;20027;-62
2022/04/14 09:20:33;;;;;;;10.82;5.25;;;;;;;;;;5100992;28;20469;-62
2022/04/14 09:23:15;;;;;;;7.93;4.70;;;;;;;;;;5095286;28;20553;-62
2022/04/14 09:25:42;;;;;;;7.80;5.03;;;;;;;;;;5077864;28;20118;-63
2022/04/14 09:28:15;;;;;;;10.82;5.75;;;;;;;;;;5092312;28;20047;-62
2022/04/14 09:30:56;;;;;;;10.40;5.80;;;;;;;;;;5088575;28;20066;-63
2022/04/14 09:33:23;;;;;;;9.48;5.63;;;;;;;;;;5087544;28;20071;-63
2022/04/14 09:36:17;;;;;;;10.43;5.78;;;15.40;99.90;;;;;;5088365;28;20390;-63
2022/04/14 09:38:57;;;;;;;9.07;5.18;;;15.60;99.90;;;;;;5071830;28;20039;-63
2022/04/14 09:41:37;;;;;;;11.02;5.68;;;15.60;99.90;;;;;;5087562;28;20032;-63
2022/04/14 09:44:14;;;;;;;10.95;5.15;;;15.60;99.90;;;;;;5088807;28;20040;-63
2022/04/14 09:46:47;;;;;;;7.30;3.38;;;15.60;99.90;;;;;;5084521;28;20043;-63
2022/04/14 09:49:13;;;;;;;9.43;4.85;;;15.50;99.90;;;;;;5082833;28;20118;-63
2022/04/14 09:51:41;;;;;;;9.82;4.90;;;15.40;99.90;;;;;;5087214;28;20097;-63
2022/04/14 09:54:12;;;;;;;12.48;5.78;;;15.50;99.90;;;;;;5087420;28;20080;-63
2022/04/14 09:56:53;;;;;;;9.32;5.10;;;15.70;99.90;;;;;;5088521;28;20031;-62
2022/04/14 09:59:24;;;;;;;9.07;6.00;;;15.80;99.90;;;;;;5088210;28;20040;-63
2022/04/14 10:02:14;;;;;;;6.63;3.10;;;15.80;99.90;;;;;;5088446;28;20118;-63
2022/04/14 10:04:42;;;;;;;8.80;4.43;;;15.90;99.90;;;;;;5087157;28;20052;-63
2022/04/14 10:07:11;;;;;;;8.30;4.72;;;15.90;99.90;;;;;;5087555;28;20044;-63
2022/04/14 10:09:41;;;;;;;11.82;5.93;;;15.80;99.90;;;;;;5072251;28;20047;-62
2022/04/14 10:12:31;;;;;;;12.13;7.07;;;15.80;99.90;;;;;;5091305;28;20040;-62
2022/04/14 10:15:04;;;;;;;12.55;6.93;;;15.90;99.90;;;;;;5099381;28;20048;-63
2022/04/14 10:17:38;;;;;;;12.63;8.27;;;15.80;99.90;;;;;;5090817;28;20032;-62
2022/04/14 10:20:08;;;;;;;14.73;7.57;;;15.80;99.90;;;;;;5091799;28;20039;-64
2022/04/14 10:22:35;;;;;;;11.35;7.35;;;15.80;99.90;;;;;;5090242;28;20056;-64
2022/04/14 10:25:02;;;;;;;14.02;8.25;;;15.70;99.90;;;;;;5092037;28;20431;-63
2022/04/14 10:27:30;;;;;;;13.38;7.25;;;15.70;99.90;;;;;;5108909;28;20036;-63
2022/04/14 10:29:56;;;;;;;10.60;7.03;;;15.70;99.90;;;;;;5096268;28;20036;-63
2022/04/14 10:32:22;;;;;;;9.55;5.00;;;15.70;99.90;;;;;;5094695;28;20040;-63
2022/04/14 10:34:48;;;;;;;8.57;5.35;;;16.00;99.90;;;;;;5077177;28;20089;-63
2022/04/14 10:37:23;;;;;;;10.77;6.68;;;15.70;99.90;;;;;;5095766;28;20115;-63
2022/04/14 10:39:49;;;;;;;10.70;7.05;;;15.70;99.90;;;;;;5094769;28;20051;-63
2022/04/14 10:42:20;;;;;;;12.02;7.28;;;15.70;99.90;;;;;;5094390;28;20032;-63
2022/04/14 10:44:53;;;;;;;12.43;8.27;;;15.70;99.90;;;;;;5094538;28;20044;-63
2022/04/14 10:47:42;;;;;;;12.32;8.13;;;15.60;99.90;;;;;;5095654;28;20400;-63
2022/04/14 10:50:19;;;;;;;11.80;8.10;;;15.60;99.90;;;;;;5094633;28;20376;-63
2022/04/14 10:53:00;;;;;;;11.98;7.88;;;15.50;99.90;;;;;;5093954;28;20477;-63
2022/04/14 10:55:46;;;;;;;11.23;6.65;;;15.50;99.90;;;;;;5093586;28;20094;-63
2022/04/14 10:58:40;;;;;;;9.77;5.72;;;15.60;99.90;;;;;;5109545;28;20032;-63
2022/04/14 11:01:11;;;;;;;13.35;6.43;;;15.50;99.90;;;;;;5096387;28;20130;-63
2022/04/14 11:03:48;;;;;;;10.43;6.22;;;15.40;99.90;;;;;;5094313;28;20129;-63
2022/04/14 11:06:45;;;;;;;9.27;5.97;;;15.40;99.90;;;;;;5094252;28;20048;-63
2022/04/14 11:09:38;;;;;;;12.63;5.90;;;15.60;99.90;;;;;;5094751;28;20040;-61
2022/04/14 11:12:05;;;;;;;13.30;5.80;;;15.50;99.90;;;;;;5094011;28;20431;-61
2022/04/14 11:15:00;;;;;;;11.52;6.05;;;15.30;99.90;;;;;;5093868;28;20503;-61
2022/04/14 11:17:40;;;;;;;9.27;5.32;;;15.80;99.90;;;;;;5093607;28;20101;-61
2022/04/14 11:20:30;;;;;;;10.55;5.72;;;16.30;99.90;;;;;;5095170;28;20489;-61
2022/04/14 11:23:09;;;;;;;8.35;4.97;;;15.80;99.90;;;;;;5061239;28;20040;-61
2022/04/14 11:25:44;;;;;;;10.65;6.07;;;15.80;99.90;;;;;;5073555;28;20048;-62
2022/04/14 11:28:20;;;;;;;;;;;15.80;99.90;;;;;;5057442;28;20056;-62
2022/04/14 11:30:48;;;;;;;11.25;5.82;;;15.90;99.90;;;;;;5074016;28;20281;-62
2022/04/14 11:33:21;;;;;;;11.27;5.55;;;17.40;99.90;;;;;;5074611;28;20045;-62
2022/04/14 11:35:54;;;;;;;10.07;5.75;;;15.80;99.90;;;;;;5080918;28;20122;-62
2022/04/14 11:39:01;;;;;;;11.27;5.45;;;15.90;99.90;;;;;;5093026;28;20066;-62
2022/04/14 11:41:49;;;;;;;10.30;5.63;;;15.90;99.90;;;;;;5093673;28;20032;-62
2022/04/14 11:44:19;;;;;;;11.93;5.75;;;15.80;99.90;;;;;;5092266;28;20036;-62
2022/04/14 11:46:54;;;;;;;11.15;5.80;;;15.60;99.90;;;;;;5094232;28;20086;-61
2022/04/14 11:49:22;;;;;;;7.70;4.30;;;15.70;99.90;;;;;;5092710;28;20111;-62
2022/04/14 11:51:53;;;;;;;10.30;5.10;;;15.60;99.90;;;;;;5092708;28;20044;-62
2022/04/14 11:54:29;;;;;;;9.35;4.65;;;16.00;99.90;;;;;;5095008;28;20115;-62
2022/04/14 11:57:09;;;;;;;8.25;4.30;;;15.50;99.90;;;;;;5094866;28;20062;-61
2022/04/14 11:59:37;;;;;;;8.00;4.70;;;16.10;99.90;;;;;;5092669;28;20066;-62
2022/04/14 12:02:06;;;;;;;8.80;5.13;;;15.60;99.90;;;;;;5094327;28;20048;-62
2022/04/14 12:05:00;;;;;;;9.43;5.32;;;15.70;99.90;;;;;;5094501;28;20067;-62
2022/04/14 12:07:31;;;;;;;11.00;5.43;;;15.50;99.90;;;;;;5091647;28;20488;-62
2022/04/14 12:10:02;;;;;;;12.27;6.00;;;16.10;99.90;;;;;;5072816;28;20048;-62
2022/04/14 12:12:33;;;;;;;13.20;5.22;;;16.00;99.90;;;;;;5082058;28;20043;-62
2022/04/14 12:15:00;;;;;;;11.40;4.63;;;16.30;99.90;;;;;;5092979;28;20071;-61
2022/04/14 12:17:26;;;;;;;10.38;4.30;;;;;;;;;;5075959;28;20088;-61
2022/04/14 12:19:57;;;;;;;9.30;5.10;;;15.80;99.90;;;;;;5090701;28;20051;-62
2022/04/14 12:22:24;;;;;;;10.90;5.28;;;16.10;99.90;;;;;;5092762;28;20040;-61
2022/04/14 12:24:58;;;;;;;9.13;4.90;;;16.10;99.90;;;;;;5092459;28;20048;-62
2022/04/14 12:27:38;;;;;;;12.63;5.68;;;16.00;99.90;;;;;;5092401;28;20042;-61
2022/04/14 12:30:14;;;;;;;9.60;5.13;;;16.20;99.90;;;;;;5091978;28;20118;-62
2022/04/14 12:32:43;;;;;;;11.32;4.68;;;16.20;99.90;;;;;;5092395;28;20040;-62
2022/04/14 12:35:10;;;;;;;8.07;4.97;;;16.60;99.90;;;;;;5091645;28;20550;-62
2022/04/14 12:37:40;;;;;;;8.60;4.47;;;16.00;99.90;;;;;;5093928;28;20125;-62
2022/04/14 12:40:21;;;;;;;10.50;4.80;;;15.90;99.90;;;;;;5091581;28;20036;-62
2022/04/14 12:42:47;;;;;;;8.90;4.50;;;16.00;99.90;;;;;;5092650;28;20115;-62
2022/04/14 12:45:17;;;;;;;10.35;4.25;;;16.00;99.90;;;;;;5092292;28;20192;-62
2022/04/14 12:47:43;;;;;;;9.40;4.50;;;;;;;;;;5072809;28;20134;-61
2022/04/14 12:50:10;;;;;;;10.27;4.43;;;15.70;99.90;;;;;;5092751;28;20123;-62
2022/04/14 12:52:36;;;;;;;7.60;4.15;;;;;;;;;;5091930;28;20051;-62
2022/04/14 12:55:03;;;;;;;9.70;4.72;;;15.40;99.90;;;;;;5091034;28;20044;-61
2022/04/14 12:57:32;;;;;;;10.43;4.53;;;15.70;99.90;;;;;;5093643;28;20089;-62
2022/04/14 13:00:04;;;;;;;8.88;4.20;;;15.80;99.90;;;;;;5093263;28;20040;-62
2022/04/14 13:02:30;;;;;;;12.93;4.10;;;17.10;99.90;;;;;;5072728;28;20081;-62
2022/04/14 13:05:07;;;;;;;13.07;4.95;;;15.70;99.90;;;;;;5092684;28;20119;-61
2022/04/14 13:07:45;;;;;;;11.45;5.35;;;15.80;99.90;;;;;;5091887;28;20051;-62
2022/04/14 13:10:11;;;;;;;10.40;4.63;;;15.20;99.90;;;;;;5092373;28;20052;-61
2022/04/14 13:12:41;;;;;;;12.02;4.57;;;15.30;99.90;;;;;;5091155;28;20036;-61
2022/04/14 13:15:09;;;;;;;10.75;4.95;;;15.60;99.90;;;;;;5092323;28;20096;-61
2022/04/14 13:17:38;;;;;;;15.00;7.82;;;;;;;;;;5091835;28;20036;-61
2022/04/14 13:20:10;;;;;;;13.98;7.57;;;15.30;99.90;;;;;;5092910;28;20398;-60